sensor_id;sensor_type;location;lat;lon;timestamp;pressure;altitude;pressure_sealevel;temperature;humidity
48035;BME280;33812;46.480;6.834;2023-10-19T00:00:19;92377.97;;;23.13;44.30
48035;BME280;33812;46.480;6.834;2023-10-19T00:04:22;92379.47;;;23.14;44.38
48035;BME280;33812;46.480;6.834;2023-10-19T00:08:25;92389.06;;;23.13;44.39
48035;BME280;33812;46.480;6.834;2023-10-19T00:12:36;92390.56;;;23.14;44.44
48035;BME280;33812;46.480;6.834;2023-10-19T00:16:39;92384.25;;;23.14;44.50
48035;BME280;33812;46.480;6.834;2023-10-19T00:20:43;92376.44;;;23.12;44.46
48035;BME280;33812;46.480;6.834;2023-10-19T00:24:51;92381.19;;;23.12;44.54
48035;BME280;33812;46.480;6.834;2023-10-19T00:28:53;92375.66;;;23.12;44.46
48035;BME280;33812;46.480;6.834;2023-10-19T00:32:56;92374.91;;;23.11;44.15
48035;BME280;33812;46.480;6.834;2023-10-19T00:37:05;92368.59;;;23.11;44.27
48035;BME280;33812;46.480;6.834;2023-10-19T00:41:11;92358.00;;;23.09;44.54
48035;BME280;33812;46.480;6.834;2023-10-19T00:45:21;92362.28;;;23.10;44.27
48035;BME280;33812;46.480;6.834;2023-10-19T00:49:27;92353.72;;;23.08;44.54
48035;BME280;33812;46.480;6.834;2023-10-19T00:53:30;92348.19;;;23.08;44.36
48035;BME280;33812;46.480;6.834;2023-10-19T00:57:32;92348.19;;;23.08;44.14
48035;BME280;33812;46.480;6.834;2023-10-19T01:01:34;92353.72;;;23.08;44.44
48035;BME280;33812;46.480;6.834;2023-10-19T01:05:41;92362.78;;;23.09;44.30
48035;BME280;33812;46.480;6.834;2023-10-19T01:09:50;92346.63;;;23.07;44.38
48035;BME280;33812;46.480;6.834;2023-10-19T01:13:53;92348.19;;;23.08;44.06
48035;BME280;33812;46.480;6.834;2023-10-19T01:17:57;92336.81;;;23.06;44.61
48035;BME280;33812;46.480;6.834;2023-10-19T01:21:59;92346.34;;;23.05;44.16
48035;BME280;33812;46.480;6.834;2023-10-19T01:26:06;92335.56;;;23.07;44.50
48035;BME280;33812;46.480;6.834;2023-10-19T01:30:10;92334.03;;;23.06;44.39
48035;BME280;33812;46.480;6.834;2023-10-19T01:34:14;92329.44;;;23.03;44.27
48035;BME280;33812;46.480;6.834;2023-10-19T01:38:20;92326.22;;;23.04;44.24
48035;BME280;33812;46.480;6.834;2023-10-19T01:42:23;92316.38;;;23.03;44.19
48035;BME280;33812;46.480;6.834;2023-10-19T01:46:25;92314.38;;;23.04;44.34
48035;BME280;33812;46.480;6.834;2023-10-19T01:50:32;92296.19;;;23.03;44.30
48035;BME280;33812;46.480;6.834;2023-10-19T01:54:36;92302.53;;;23.03;44.40
48035;BME280;33812;46.480;6.834;2023-10-19T01:58:42;92305.78;;;23.02;44.16
48035;BME280;33812;46.480;6.834;2023-10-19T02:02:46;92289.91;;;23.02;44.13
48035;BME280;33812;46.480;6.834;2023-10-19T02:06:48;92276.56;;;23.01;44.26
48035;BME280;33812;46.480;6.834;2023-10-19T02:10:53;92269.00;;;23.01;44.20
48035;BME280;33812;46.480;6.834;2023-10-19T02:14:57;92259.94;;;23.01;44.23
48035;BME280;33812;46.480;6.834;2023-10-19T02:18:58;92256.41;;;23.00;44.17
48035;BME280;33812;46.480;6.834;2023-10-19T02:23:01;92257.91;;;23.01;44.21
48035;BME280;33812;46.480;6.834;2023-10-19T02:27:04;92259.16;;;23.00;44.46
48035;BME280;33812;46.480;6.834;2023-10-19T02:31:07;92259.16;;;23.00;44.36
48035;BME280;33812;46.480;6.834;2023-10-19T02:35:15;92248.84;;;23.01;44.10
48035;BME280;33812;46.480;6.834;2023-10-19T02:39:18;92248.84;;;23.01;44.18
48035;BME280;33812;46.480;6.834;2023-10-19T02:43:20;92251.34;;;22.99;44.28
48035;BME280;33812;46.480;6.834;2023-10-19T02:47:25;92256.88;;;22.99;44.26
48035;BME280;33812;46.480;6.834;2023-10-19T02:51:29;92243.53;;;22.97;44.07
48035;BME280;33812;46.480;6.834;2023-10-19T02:55:31;92249.06;;;22.97;43.98
48035;BME280;33812;46.480;6.834;2023-10-19T02:59:33;92241.50;;;22.98;44.03
48035;BME280;33812;46.480;6.834;2023-10-19T03:03:37;92237.22;;;22.97;44.29
48035;BME280;33812;46.480;6.834;2023-10-19T03:07:39;92225.38;;;22.96;43.97
48035;BME280;33812;46.480;6.834;2023-10-19T03:11:43;92216.56;;;22.98;44.25
48035;BME280;33812;46.480;6.834;2023-10-19T03:15:45;92219.81;;;22.96;44.20
48035;BME280;33812;46.480;6.834;2023-10-19T03:19:50;92208.00;;;22.96;44.04
48035;BME280;33812;46.480;6.834;2023-10-19T03:23:52;92201.69;;;22.95;44.32
48035;BME280;33812;46.480;6.834;2023-10-19T03:27:54;92201.69;;;22.95;44.31
48035;BME280;33812;46.480;6.834;2023-10-19T03:31:56;92195.38;;;22.94;44.23
48035;BME280;33812;46.480;6.834;2023-10-19T03:36:00;92186.31;;;22.94;44.46
48035;BME280;33812;46.480;6.834;2023-10-19T03:40:03;92189.09;;;22.94;44.43
48035;BME280;33812;46.480;6.834;2023-10-19T03:44:08;92177.25;;;22.93;44.38
48035;BME280;33812;46.480;6.834;2023-10-19T03:48:13;92168.94;;;22.93;44.06
48035;BME280;33812;46.480;6.834;2023-10-19T03:52:18;92149.53;;;22.93;44.37
48035;BME280;33812;46.480;6.834;2023-10-19T03:56:22;92143.72;;;22.91;44.12
48035;BME280;33812;46.480;6.834;2023-10-19T04:00:24;92135.41;;;22.91;44.05
48035;BME280;33812;46.480;6.834;2023-10-19T04:04:28;92138.97;;;22.92;44.17
48035;BME280;33812;46.480;6.834;2023-10-19T04:08:32;92138.19;;;22.91;44.15
48035;BME280;33812;46.480;6.834;2023-10-19T04:12:39;92134.66;;;22.91;44.05
48035;BME280;33812;46.480;6.834;2023-10-19T04:16:42;92140.97;;;22.91;44.18
48035;BME280;33812;46.480;6.834;2023-10-19T04:20:45;92141.25;;;22.93;44.08
48035;BME280;33812;46.480;6.834;2023-10-19T04:25:00;92130.66;;;22.92;44.22
48035;BME280;33812;46.480;6.834;2023-10-19T04:29:02;92127.66;;;22.96;44.58
48035;BME280;33812;46.480;6.834;2023-10-19T04:33:10;92120.59;;;22.94;44.22
48035;BME280;33812;46.480;6.834;2023-10-19T04:37:12;92120.31;;;22.92;44.41
48035;BME280;33812;46.480;6.834;2023-10-19T04:41:20;92113.25;;;22.91;44.59
48035;BME280;33812;46.480;6.834;2023-10-19T04:45:22;92106.94;;;22.91;44.19
48035;BME280;33812;46.480;6.834;2023-10-19T04:49:24;92110.50;;;22.91;44.16
48035;BME280;33812;46.480;6.834;2023-10-19T04:53:26;92094.84;;;22.88;44.39
48035;BME280;33812;46.480;6.834;2023-10-19T04:57:29;92090.09;;;22.89;44.09
48035;BME280;33812;46.480;6.834;2023-10-19T05:01:31;92097.63;;;22.88;44.38
48035;BME280;33812;46.480;6.834;2023-10-19T05:05:34;92105.94;;;22.88;43.88
48035;BME280;33812;46.480;6.834;2023-10-19T05:09:36;92114.25;;;22.88;44.24
48035;BME280;33812;46.480;6.834;2023-10-19T05:13:40;92109.94;;;22.87;44.22
48035;BME280;33812;46.480;6.834;2023-10-19T05:17:42;92105.44;;;22.90;44.32
48035;BME280;33812;46.480;6.834;2023-10-19T05:21:44;92104.19;;;22.91;44.02
48035;BME280;33812;46.480;6.834;2023-10-19T05:25:46;92087.06;;;22.92;44.12
48035;BME280;33812;46.480;6.834;2023-10-19T05:29:49;92087.63;;;22.97;43.83
48035;BME280;33812;46.480;6.834;2023-10-19T05:33:51;92078.03;;;22.98;43.92
48035;BME280;33812;46.480;6.834;2023-10-19T05:37:53;92062.19;;;22.98;43.56
48035;BME280;33812;46.480;6.834;2023-10-19T05:41:55;92064.19;;;22.98;43.92
48035;BME280;33812;46.480;6.834;2023-10-19T05:46:00;92056.16;;;23.00;43.77
48035;BME280;33812;46.480;6.834;2023-10-19T05:50:03;92052.66;;;22.99;43.67
48035;BME280;33812;46.480;6.834;2023-10-19T05:54:05;92037.75;;;22.97;43.97
48035;BME280;33812;46.480;6.834;2023-10-19T05:58:08;92020.41;;;23.02;43.73
48035;BME280;33812;46.480;6.834;2023-10-19T06:02:11;92026.22;;;23.04;43.59
48035;BME280;33812;46.480;6.834;2023-10-19T06:06:13;92016.13;;;23.01;43.87
48035;BME280;33812;46.480;6.834;2023-10-19T06:10:17;92022.69;;;23.03;43.47
48035;BME280;33812;46.480;6.834;2023-10-19T06:14:20;92014.81;;;22.96;43.42
48035;BME280;33812;46.480;6.834;2023-10-19T06:18:23;92007.28;;;22.97;43.78
48035;BME280;33812;46.480;6.834;2023-10-19T06:22:25;92021.69;;;23.01;43.72
48035;BME280;33812;46.480;6.834;2023-10-19T06:26:28;92024.69;;;23.03;43.63
48035;BME280;33812;46.480;6.834;2023-10-19T06:30:31;92028.50;;;23.05;43.41
48035;BME280;33812;46.480;6.834;2023-10-19T06:34:34;92018.13;;;23.00;43.41
48035;BME280;33812;46.480;6.834;2023-10-19T06:38:36;92021.91;;;23.03;43.09
48035;BME280;33812;46.480;6.834;2023-10-19T06:42:38;92029.25;;;23.06;43.14
48035;BME280;33812;46.480;6.834;2023-10-19T06:46:39;92021.69;;;23.01;43.18
48035;BME280;33812;46.480;6.834;2023-10-19T06:50:45;92009.06;;;23.00;43.67
48035;BME280;33812;46.480;6.834;2023-10-19T06:54:46;91999.28;;;23.04;43.58
48035;BME280;33812;46.480;6.834;2023-10-19T06:58:48;92001.34;;;23.10;43.42
48035;BME280;33812;46.480;6.834;2023-10-19T07:02:51;92004.06;;;23.04;43.65
48035;BME280;33812;46.480;6.834;2023-10-19T07:06:54;92001.56;;;23.06;43.26
48035;BME280;33812;46.480;6.834;2023-10-19T07:10:56;91986.16;;;23.05;43.42
48035;BME280;33812;46.480;6.834;2023-10-19T07:14:57;91980.91;;;23.07;43.42
48035;BME280;33812;46.480;6.834;2023-10-19T07:19:01;91989.44;;;23.03;43.93
48035;BME280;33812;46.480;6.834;2023-10-19T07:23:04;91994.75;;;23.07;43.33
48035;BME280;33812;46.480;6.834;2023-10-19T07:27:10;91983.19;;;23.09;43.48
48035;BME280;33812;46.480;6.834;2023-10-19T07:31:18;91980.34;;;23.03;43.52
48035;BME280;33812;46.480;6.834;2023-10-19T07:35:22;91983.63;;;23.01;43.26
48035;BME280;33812;46.480;6.834;2023-10-19T07:39:27;91981.34;;;23.00;43.48
48035;BME280;33812;46.480;6.834;2023-10-19T07:43:30;91985.91;;;23.03;43.38
48035;BME280;33812;46.480;6.834;2023-10-19T07:47:33;91969.28;;;23.03;43.21
48035;BME280;33812;46.480;6.834;2023-10-19T07:51:35;91975.09;;;23.05;43.23
48035;BME280;33812;46.480;6.834;2023-10-19T07:55:38;91975.34;;;23.07;43.13
48035;BME280;33812;46.480;6.834;2023-10-19T07:59:40;91965.81;;;23.08;43.15
48035;BME280;33812;46.480;6.834;2023-10-19T08:03:43;91961.50;;;23.07;43.26
48035;BME280;33812;46.480;6.834;2023-10-19T08:07:45;91967.03;;;23.07;43.30
48035;BME280;33812;46.480;6.834;2023-10-19T08:11:48;91963.03;;;23.08;42.90
48035;BME280;33812;46.480;6.834;2023-10-19T08:15:50;91961.00;;;23.09;42.75
48035;BME280;33812;46.480;6.834;2023-10-19T08:19:52;91964.53;;;23.09;42.95
48035;BME280;33812;46.480;6.834;2023-10-19T08:23:54;91957.50;;;23.08;43.08
48035;BME280;33812;46.480;6.834;2023-10-19T08:27:57;91956.22;;;23.09;42.97
48035;BME280;33812;46.480;6.834;2023-10-19T08:31:59;91955.47;;;23.09;42.60
48035;BME280;33812;46.480;6.834;2023-10-19T08:36:01;91942.88;;;23.08;42.90
48035;BME280;33812;46.480;6.834;2023-10-19T08:40:03;91940.88;;;23.08;43.22
48035;BME280;33812;46.480;6.834;2023-10-19T08:44:07;91943.88;;;23.10;42.68
48035;BME280;33812;46.480;6.834;2023-10-19T08:48:11;91953.97;;;23.08;42.91
48035;BME280;33812;46.480;6.834;2023-10-19T08:52:15;91941.63;;;23.09;42.59
48035;BME280;33812;46.480;6.834;2023-10-19T08:56:17;91936.06;;;23.09;42.96
48035;BME280;33812;46.480;6.834;2023-10-19T09:00:20;91931.56;;;23.11;42.66
48035;BME280;33812;46.480;6.834;2023-10-19T09:04:25;91913.41;;;23.10;42.81
48035;BME280;33812;46.480;6.834;2023-10-19T09:08:27;91909.91;;;23.10;42.39
48035;BME280;33812;46.480;6.834;2023-10-19T09:12:38;91911.66;;;23.13;42.54
48035;BME280;33812;46.480;6.834;2023-10-19T09:16:55;91883.97;;;23.13;42.71
48035;BME280;33812;46.480;6.834;2023-10-19T09:20:57;91872.88;;;23.13;42.47
48035;BME280;33812;46.480;6.834;2023-10-19T09:25:08;91868.09;;;23.13;42.58
48035;BME280;33812;46.480;6.834;2023-10-19T09:29:13;91877.91;;;23.14;42.54
48035;BME280;33812;46.480;6.834;2023-10-19T09:33:22;91872.13;;;23.12;42.16
48035;BME280;33812;46.480;6.834;2023-10-19T09:37:24;91862.56;;;23.13;42.22
48035;BME280;33812;46.480;6.834;2023-10-19T09:41:26;91868.34;;;23.15;42.77
48035;BME280;33812;46.480;6.834;2023-10-19T09:45:30;91871.63;;;23.14;42.56
48035;BME280;33812;46.480;6.834;2023-10-19T09:49:35;91842.66;;;23.15;42.59
48035;BME280;33812;46.480;6.834;2023-10-19T09:53:38;91833.84;;;23.16;42.41
48035;BME280;33812;46.480;6.834;2023-10-19T09:57:56;91835.34;;;23.17;42.81
48035;BME280;33812;46.480;6.834;2023-10-19T10:02:09;91847.97;;;23.18;42.43
48035;BME280;33812;46.480;6.834;2023-10-19T10:06:15;91850.25;;;23.20;42.92
48035;BME280;33812;46.480;6.834;2023-10-19T10:10:18;91842.44;;;23.18;43.00
48035;BME280;33812;46.480;6.834;2023-10-19T10:14:23;91843.94;;;23.19;43.00
48035;BME280;33812;46.480;6.834;2023-10-19T10:18:26;91838.38;;;23.19;42.84
48035;BME280;33812;46.480;6.834;2023-10-19T10:22:29;91848.72;;;23.19;43.12
48035;BME280;33812;46.480;6.834;2023-10-19T10:26:57;91849.47;;;23.19;43.23
48035;BME280;33812;46.480;6.834;2023-10-19T10:31:18;91848.72;;;23.19;43.06
48035;BME280;33812;46.480;6.834;2023-10-19T10:35:54;91862.81;;;23.21;43.10
48035;BME280;33812;46.480;6.834;2023-10-19T10:40:00;91853.75;;;23.21;43.11
48035;BME280;33812;46.480;6.834;2023-10-19T10:44:01;91846.97;;;23.22;43.43
48035;BME280;33812;46.480;6.834;2023-10-19T10:48:03;91851.75;;;23.21;43.31
48035;BME280;33812;46.480;6.834;2023-10-19T10:52:05;91852.78;;;23.24;43.68
48035;BME280;33812;46.480;6.834;2023-10-19T10:56:09;91845.19;;;23.24;43.48
48035;BME280;33812;46.480;6.834;2023-10-19T11:00:12;91857.56;;;23.29;43.49
48035;BME280;33812;46.480;6.834;2023-10-19T11:04:16;91858.81;;;23.28;43.74
48035;BME280;33812;46.480;6.834;2023-10-19T11:08:18;91838.66;;;23.27;44.23
48035;BME280;33812;46.480;6.834;2023-10-19T11:12:22;91847.72;;;23.28;44.18
48035;BME280;33812;46.480;6.834;2023-10-19T11:16:24;91854.31;;;23.30;44.15
48035;BME280;33812;46.480;6.834;2023-10-19T11:20:26;91848.00;;;23.30;44.68
48035;BME280;33812;46.480;6.834;2023-10-19T11:24:28;91835.41;;;23.29;44.46
48035;BME280;33812;46.480;6.834;2023-10-19T11:28:35;91816.25;;;23.31;44.77
48035;BME280;33812;46.480;6.834;2023-10-19T11:32:39;91808.44;;;23.29;44.46
48035;BME280;33812;46.480;6.834;2023-10-19T11:36:41;91798.09;;;23.30;44.87
48035;BME280;33812;46.480;6.834;2023-10-19T11:40:43;91787.03;;;23.30;45.15
48035;BME280;33812;46.480;6.834;2023-10-19T11:44:46;91760.06;;;23.30;44.93
48035;BME280;33812;46.480;6.834;2023-10-19T11:48:48;91763.59;;;23.31;44.95
48035;BME280;33812;46.480;6.834;2023-10-19T11:52:50;91751.25;;;23.32;45.25
48035;BME280;33812;46.480;6.834;2023-10-19T11:56:52;91747.97;;;23.34;44.80
48035;BME280;33812;46.480;6.834;2023-10-19T12:00:56;91738.16;;;23.33;44.98
48035;BME280;33812;46.480;6.834;2023-10-19T12:04:57;91744.19;;;23.31;45.45
48035;BME280;33812;46.480;6.834;2023-10-19T12:08:59;91733.84;;;23.31;45.53
48035;BME280;33812;46.480;6.834;2023-10-19T12:13:14;91723.53;;;23.32;45.75
48035;BME280;33812;46.480;6.834;2023-10-19T12:17:18;91708.91;;;23.31;45.38
48035;BME280;33812;46.480;6.834;2023-10-19T12:21:22;91693.06;;;23.32;45.18
48035;BME280;33812;46.480;6.834;2023-10-19T12:25:28;91670.88;;;23.32;45.88
48035;BME280;33812;46.480;6.834;2023-10-19T12:29:32;91675.66;;;23.31;45.89
48035;BME280;33812;46.480;6.834;2023-10-19T12:33:36;91658.53;;;23.33;45.87
48035;BME280;33812;46.480;6.834;2023-10-19T12:37:38;91663.06;;;23.36;45.63
48035;BME280;33812;46.480;6.834;2023-10-19T12:41:46;91641.91;;;23.33;45.71
48035;BME280;33812;46.480;6.834;2023-10-19T12:45:50;91637.88;;;23.34;45.37
48035;BME280;33812;46.480;6.834;2023-10-19T12:49:55;91638.38;;;23.33;45.64
48035;BME280;33812;46.480;6.834;2023-10-19T12:54:00;91621.25;;;23.34;45.81
48035;BME280;33812;46.480;6.834;2023-10-19T12:58:04;91599.06;;;23.34;46.08
48035;BME280;33812;46.480;6.834;2023-10-19T13:02:09;91601.09;;;23.34;45.82
48035;BME280;33812;46.480;6.834;2023-10-19T13:06:17;91601.34;;;23.36;46.46
48035;BME280;33812;46.480;6.834;2023-10-19T13:10:19;91599.81;;;23.35;46.42
48035;BME280;33812;46.480;6.834;2023-10-19T13:14:21;91588.22;;;23.36;45.85
48035;BME280;33812;46.480;6.834;2023-10-19T13:18:23;91584.47;;;23.39;46.10
48035;BME280;33812;46.480;6.834;2023-10-19T13:22:29;91585.97;;;23.40;46.17
48035;BME280;33812;46.480;6.834;2023-10-19T13:26:34;91570.34;;;23.37;45.82
48035;BME280;33812;46.480;6.834;2023-10-19T13:30:37;91578.69;;;23.43;46.04
48035;BME280;33812;46.480;6.834;2023-10-19T13:34:38;91579.66;;;23.40;46.02
48035;BME280;33812;46.480;6.834;2023-10-19T13:38:44;91573.13;;;23.37;45.92
48035;BME280;33812;46.480;6.834;2023-10-19T13:42:45;91565.56;;;23.38;45.86
48035;BME280;33812;46.480;6.834;2023-10-19T13:46:47;91554.47;;;23.38;45.85
48035;BME280;33812;46.480;6.834;2023-10-19T13:50:51;91532.31;;;23.38;45.67
48035;BME280;33812;46.480;6.834;2023-10-19T13:55:02;91531.53;;;23.37;45.56
48035;BME280;33812;46.480;6.834;2023-10-19T13:59:04;91542.41;;;23.41;45.60
48035;BME280;33812;46.480;6.834;2023-10-19T14:03:07;91538.34;;;23.42;45.24
48035;BME280;33812;46.480;6.834;2023-10-19T14:07:09;91550.19;;;23.42;45.32
48035;BME280;33812;46.480;6.834;2023-10-19T14:11:12;91548.19;;;23.43;45.22
48035;BME280;33812;46.480;6.834;2023-10-19T14:15:16;91532.03;;;23.41;45.45
48035;BME280;33812;46.480;6.834;2023-10-19T14:19:18;91533.81;;;23.45;45.55
48035;BME280;33812;46.480;6.834;2023-10-19T14:23:20;91548.19;;;23.43;45.11
48035;BME280;33812;46.480;6.834;2023-10-19T14:27:23;91555.25;;;23.44;45.04
48035;BME280;33812;46.480;6.834;2023-10-19T14:31:26;91542.66;;;23.43;45.47
48035;BME280;33812;46.480;6.834;2023-10-19T14:35:28;91538.09;;;23.46;45.14
48035;BME280;33812;46.480;6.834;2023-10-19T14:39:30;91536.59;;;23.45;45.08
48035;BME280;33812;46.480;6.834;2023-10-19T14:43:33;91538.84;;;23.46;45.06
48035;BME280;33812;46.480;6.834;2023-10-19T14:47:36;91524.22;;;23.46;45.37
48035;BME280;33812;46.480;6.834;2023-10-19T14:51:38;91517.41;;;23.47;45.27
48035;BME280;33812;46.480;6.834;2023-10-19T14:55:39;91535.56;;;23.48;45.29
48035;BME280;33812;46.480;6.834;2023-10-19T14:59:43;91532.81;;;23.48;45.17
48035;BME280;33812;46.480;6.834;2023-10-19T15:03:44;91550.94;;;23.49;44.95
48035;BME280;33812;46.480;6.834;2023-10-19T15:07:49;91552.22;;;23.48;45.25
48035;BME280;33812;46.480;6.834;2023-10-19T15:11:52;91537.84;;;23.49;44.88
48035;BME280;33812;46.480;6.834;2023-10-19T15:15:55;91525.25;;;23.48;44.98
48035;BME280;33812;46.480;6.834;2023-10-19T15:19:57;91532.81;;;23.48;45.01
48035;BME280;33812;46.480;6.834;2023-10-19T15:23:59;91544.66;;;23.48;44.78
48035;BME280;33812;46.480;6.834;2023-10-19T15:28:01;91535.56;;;23.48;45.01
48035;BME280;33812;46.480;6.834;2023-10-19T15:32:04;91521.19;;;23.49;44.73
48035;BME280;33812;46.480;6.834;2023-10-19T15:36:06;91499.78;;;23.50;44.67
48035;BME280;33812;46.480;6.834;2023-10-19T15:40:09;91504.56;;;23.49;44.90
48035;BME280;33812;46.480;6.834;2023-10-19T15:44:13;91520.44;;;23.49;44.96
48035;BME280;33812;46.480;6.834;2023-10-19T15:48:16;91513.41;;;23.48;45.06
48035;BME280;33812;46.480;6.834;2023-10-19T15:52:19;91525.72;;;23.47;45.13
48035;BME280;33812;46.480;6.834;2023-10-19T15:56:21;91507.84;;;23.48;44.85
48035;BME280;33812;46.480;6.834;2023-10-19T16:00:27;91523.22;;;23.49;45.29
48035;BME280;33812;46.480;6.834;2023-10-19T16:04:30;91515.16;;;23.51;45.38
48035;BME280;33812;46.480;6.834;2023-10-19T16:08:32;91518.94;;;23.48;45.57
48035;BME280;33812;46.480;6.834;2023-10-19T16:12:34;91501.81;;;23.49;45.90
48035;BME280;33812;46.480;6.834;2023-10-19T16:16:35;91510.13;;;23.49;45.82
48035;BME280;33812;46.480;6.834;2023-10-19T16:20:38;91509.34;;;23.49;46.04
48035;BME280;33812;46.480;6.834;2023-10-19T16:24:40;91488.69;;;23.50;46.17
48035;BME280;33812;46.480;6.834;2023-10-19T16:28:42;91469.50;;;23.52;46.08
48035;BME280;33812;46.480;6.834;2023-10-19T16:32:44;91473.56;;;23.51;46.02
48035;BME280;33812;46.480;6.834;2023-10-19T16:36:48;91462.72;;;23.53;45.76
48035;BME280;33812;46.480;6.834;2023-10-19T16:40:50;91441.78;;;23.52;46.24
48035;BME280;33812;46.480;6.834;2023-10-19T16:44:52;91440.28;;;23.51;46.24
48035;BME280;33812;46.480;6.834;2023-10-19T16:48:53;91444.56;;;23.52;46.39
48035;BME280;33812;46.480;6.834;2023-10-19T16:52:57;91440.53;;;23.53;46.17
48035;BME280;33812;46.480;6.834;2023-10-19T16:56:58;91442.03;;;23.54;46.08
48035;BME280;33812;46.480;6.834;2023-10-19T17:01:04;91443.06;;;23.57;46.29
48035;BME280;33812;46.480;6.834;2023-10-19T17:05:09;91435.75;;;23.53;46.15
48035;BME280;33812;46.480;6.834;2023-10-19T17:09:15;91417.34;;;23.50;46.63
48035;BME280;33812;46.480;6.834;2023-10-19T17:13:20;91428.19;;;23.54;46.53
48035;BME280;33812;46.480;6.834;2023-10-19T17:17:23;91423.41;;;23.54;46.63
48035;BME280;33812;46.480;6.834;2023-10-19T17:21:25;91409.03;;;23.50;46.48
48035;BME280;33812;46.480;6.834;2023-10-19T17:25:28;91388.13;;;23.55;47.23
48035;BME280;33812;46.480;6.834;2023-10-19T17:29:31;91394.66;;;23.52;47.41
48035;BME280;33812;46.480;6.834;2023-10-19T17:33:33;91398.97;;;23.53;47.76
48035;BME280;33812;46.480;6.834;2023-10-19T17:37:34;91398.97;;;23.53;47.93
48035;BME280;33812;46.480;6.834;2023-10-19T17:41:37;91400.47;;;23.54;48.63
48035;BME280;33812;46.480;6.834;2023-10-19T17:45:45;91389.63;;;23.56;48.35
48035;BME280;33812;46.480;6.834;2023-10-19T17:49:47;91399.47;;;23.57;49.46
48035;BME280;33812;46.480;6.834;2023-10-19T17:53:48;91395.41;;;23.58;49.58
48035;BME280;33812;46.480;6.834;2023-10-19T17:57:51;91391.34;;;23.59;49.57
48035;BME280;33812;46.480;6.834;2023-10-19T18:01:53;91398.44;;;23.60;49.90
48035;BME280;33812;46.480;6.834;2023-10-19T18:05:57;91395.91;;;23.62;49.82
48035;BME280;33812;46.480;6.834;2023-10-19T18:10:00;91383.28;;;23.61;50.12
48035;BME280;33812;46.480;6.834;2023-10-19T18:14:03;91366.66;;;23.61;50.16
48035;BME280;33812;46.480;6.834;2023-10-19T18:18:05;91356.84;;;23.60;49.78
48035;BME280;33812;46.480;6.834;2023-10-19T18:22:07;91362.56;;;23.20;46.12
48035;BME280;33812;46.480;6.834;2023-10-19T18:26:09;91346.50;;;23.01;45.52
48035;BME280;33812;46.480;6.834;2023-10-19T18:30:13;91349.31;;;22.78;46.17
48035;BME280;33812;46.480;6.834;2023-10-19T18:34:15;91360.72;;;22.17;46.97
48035;BME280;33812;46.480;6.834;2023-10-19T18:38:19;91340.09;;;22.24;48.04
48035;BME280;33812;46.480;6.834;2023-10-19T18:42:21;91346.28;;;22.88;47.03
48035;BME280;33812;46.480;6.834;2023-10-19T18:46:24;91328.81;;;23.10;48.51
48035;BME280;33812;46.480;6.834;2023-10-19T18:50:27;91330.03;;;23.21;49.94
48035;BME280;33812;46.480;6.834;2023-10-19T18:54:30;91329.03;;;23.24;50.25
48035;BME280;33812;46.480;6.834;2023-10-19T18:58:31;91318.41;;;23.28;50.54
48035;BME280;33812;46.480;6.834;2023-10-19T19:02:35;91299.50;;;23.32;50.41
48035;BME280;33812;46.480;6.834;2023-10-19T19:06:36;91281.59;;;23.33;50.34
48035;BME280;33812;46.480;6.834;2023-10-19T19:10:39;91278.31;;;23.35;50.24
48035;BME280;33812;46.480;6.834;2023-10-19T19:14:40;91295.19;;;23.37;50.54
48035;BME280;33812;46.480;6.834;2023-10-19T19:18:44;91297.44;;;23.38;50.93
48035;BME280;33812;46.480;6.834;2023-10-19T19:22:45;91298.97;;;23.39;51.20
48035;BME280;33812;46.480;6.834;2023-10-19T19:26:47;91286.88;;;23.37;50.80
48035;BME280;33812;46.480;6.834;2023-10-19T19:30:51;91285.13;;;23.39;51.04
48035;BME280;33812;46.480;6.834;2023-10-19T19:34:54;91301.50;;;23.43;51.20
48035;BME280;33812;46.480;6.834;2023-10-19T19:38:56;91299.97;;;23.42;50.91
48035;BME280;33812;46.480;6.834;2023-10-19T19:42:58;91301.25;;;23.41;51.03
48035;BME280;33812;46.480;6.834;2023-10-19T19:47:00;91300.75;;;23.42;51.72
48035;BME280;33812;46.480;6.834;2023-10-19T19:51:03;91284.13;;;23.42;51.61
48035;BME280;33812;46.480;6.834;2023-10-19T19:55:09;91288.13;;;23.41;50.88
48035;BME280;33812;46.480;6.834;2023-10-19T19:59:13;91287.13;;;23.45;51.40
48035;BME280;33812;46.480;6.834;2023-10-19T20:03:17;91277.53;;;23.46;50.96
48035;BME280;33812;46.480;6.834;2023-10-19T20:07:20;91283.06;;;23.46;51.10
48035;BME280;33812;46.480;6.834;2023-10-19T20:11:22;91270.22;;;23.48;50.65
48035;BME280;33812;46.480;6.834;2023-10-19T20:15:24;91277.03;;;23.47;50.43
48035;BME280;33812;46.480;6.834;2023-10-19T20:19:25;91284.56;;;23.47;50.06
48035;BME280;33812;46.480;6.834;2023-10-19T20:23:29;91260.91;;;23.46;50.50
48035;BME280;33812;46.480;6.834;2023-10-19T20:27:31;91240.97;;;23.47;50.38
48035;BME280;33812;46.480;6.834;2023-10-19T20:31:33;91239.72;;;23.48;50.52
48035;BME280;33812;46.480;6.834;2023-10-19T20:35:36;91238.44;;;23.49;50.32
48035;BME280;33812;46.480;6.834;2023-10-19T20:39:39;91222.34;;;23.48;50.43
48035;BME280;33812;46.480;6.834;2023-10-19T20:43:41;91183.00;;;23.49;50.35
48035;BME280;33812;46.480;6.834;2023-10-19T20:47:46;91163.09;;;23.51;50.10
48035;BME280;33812;46.480;6.834;2023-10-19T20:51:49;91144.97;;;23.50;50.39
48035;BME280;33812;46.480;6.834;2023-10-19T20:55:58;91145.69;;;23.50;50.19
48035;BME280;33812;46.480;6.834;2023-10-19T21:00:01;91136.13;;;23.51;49.97
48035;BME280;33812;46.480;6.834;2023-10-19T21:04:04;91134.63;;;23.50;50.11
48035;BME280;33812;46.480;6.834;2023-10-19T21:08:05;91122.03;;;23.49;49.71
48035;BME280;33812;46.480;6.834;2023-10-19T21:12:08;91135.38;;;23.51;50.05
48035;BME280;33812;46.480;6.834;2023-10-19T21:16:10;91130.34;;;23.49;49.79
48035;BME280;33812;46.480;6.834;2023-10-19T21:20:13;91120.06;;;23.44;49.09
48035;BME280;33812;46.480;6.834;2023-10-19T21:24:15;91093.84;;;23.45;49.20
48035;BME280;33812;46.480;6.834;2023-10-19T21:28:18;91075.72;;;23.44;49.07